sensor_id;sensor_type;location;lat;lon;timestamp;P1;durP1;ratioP1;P2;durP2;ratioP2
54845;SDS011;53889;50.084;8.646;2022-12-18T00:00:08;47.47;;;18.07;;
54845;SDS011;53889;50.084;8.646;2022-12-18T00:02:42;53.07;;;19.27;;
54845;SDS011;53889;50.084;8.646;2022-12-18T00:05:09;54.17;;;18.80;;
54845;SDS011;53889;50.084;8.646;2022-12-18T00:07:36;49.47;;;19.53;;
54845;SDS011;53889;50.084;8.646;2022-12-18T00:10:04;56.60;;;20.20;;
54845;SDS011;53889;50.084;8.646;2022-12-18T00:12:31;54.87;;;20.60;;
54845;SDS011;53889;50.084;8.646;2022-12-18T00:14:58;55.77;;;20.67;;
54845;SDS011;53889;50.084;8.646;2022-12-18T00:17:26;53.07;;;20.40;;
54845;SDS011;53889;50.084;8.646;2022-12-18T00:19:53;55.30;;;20.07;;
54845;SDS011;53889;50.084;8.646;2022-12-18T00:22:20;54.87;;;20.17;;
54845;SDS011;53889;50.084;8.646;2022-12-18T00:24:47;50.40;;;19.37;;
54845;SDS011;53889;50.084;8.646;2022-12-18T00:27:13;55.13;;;20.67;;
54845;SDS011;53889;50.084;8.646;2022-12-18T00:29:40;51.30;;;20.00;;
54845;SDS011;53889;50.084;8.646;2022-12-18T00:32:07;57.07;;;20.83;;
54845;SDS011;53889;50.084;8.646;2022-12-18T00:34:35;66.47;;;24.73;;
54845;SDS011;53889;50.084;8.646;2022-12-18T00:37:02;49.30;;;19.73;;
54845;SDS011;53889;50.084;8.646;2022-12-18T00:39:29;53.43;;;19.87;;
54845;SDS011;53889;50.084;8.646;2022-12-18T00:41:55;58.43;;;22.57;;
54845;SDS011;53889;50.084;8.646;2022-12-18T00:44:40;56.97;;;22.27;;
54845;SDS011;53889;50.084;8.646;2022-12-18T00:47:06;57.40;;;20.10;;
54845;SDS011;53889;50.084;8.646;2022-12-18T00:49:33;55.53;;;19.37;;
54845;SDS011;53889;50.084;8.646;2022-12-18T00:52:01;52.50;;;18.70;;
54845;SDS011;53889;50.084;8.646;2022-12-18T00:54:28;51.73;;;18.80;;
54845;SDS011;53889;50.084;8.646;2022-12-18T00:56:54;50.10;;;19.80;;
54845;SDS011;53889;50.084;8.646;2022-12-18T00:59:21;50.27;;;19.07;;
54845;SDS011;53889;50.084;8.646;2022-12-18T01:01:49;48.77;;;18.50;;
54845;SDS011;53889;50.084;8.646;2022-12-18T01:04:16;48.03;;;18.43;;
54845;SDS011;53889;50.084;8.646;2022-12-18T01:06:44;51.07;;;19.60;;
54845;SDS011;53889;50.084;8.646;2022-12-18T01:09:12;50.30;;;20.27;;
54845;SDS011;53889;50.084;8.646;2022-12-18T01:11:39;48.53;;;18.70;;
54845;SDS011;53889;50.084;8.646;2022-12-18T01:14:06;54.23;;;23.13;;
54845;SDS011;53889;50.084;8.646;2022-12-18T01:16:33;53.93;;;21.37;;
54845;SDS011;53889;50.084;8.646;2022-12-18T01:18:59;51.57;;;20.97;;
54845;SDS011;53889;50.084;8.646;2022-12-18T01:21:26;53.30;;;19.87;;
54845;SDS011;53889;50.084;8.646;2022-12-18T01:23:54;49.97;;;19.77;;
54845;SDS011;53889;50.084;8.646;2022-12-18T01:26:23;52.33;;;19.53;;
54845;SDS011;53889;50.084;8.646;2022-12-18T01:28:53;46.57;;;18.60;;
54845;SDS011;53889;50.084;8.646;2022-12-18T01:31:22;48.27;;;19.17;;
54845;SDS011;53889;50.084;8.646;2022-12-18T01:33:52;48.90;;;19.73;;
54845;SDS011;53889;50.084;8.646;2022-12-18T01:36:20;54.43;;;20.43;;
54845;SDS011;53889;50.084;8.646;2022-12-18T01:38:48;51.27;;;20.23;;
54845;SDS011;53889;50.084;8.646;2022-12-18T01:41:17;53.20;;;20.03;;
54845;SDS011;53889;50.084;8.646;2022-12-18T01:43:50;55.10;;;21.47;;
54845;SDS011;53889;50.084;8.646;2022-12-18T01:46:18;48.53;;;18.50;;
54845;SDS011;53889;50.084;8.646;2022-12-18T01:48:47;50.43;;;20.33;;
54845;SDS011;53889;50.084;8.646;2022-12-18T01:51:16;51.80;;;19.73;;
54845;SDS011;53889;50.084;8.646;2022-12-18T01:53:43;50.07;;;18.30;;
54845;SDS011;53889;50.084;8.646;2022-12-18T01:56:15;49.70;;;19.10;;
54845;SDS011;53889;50.084;8.646;2022-12-18T01:58:47;49.23;;;18.07;;
54845;SDS011;53889;50.084;8.646;2022-12-18T02:01:20;45.58;;;17.58;;
54845;SDS011;53889;50.084;8.646;2022-12-18T02:03:47;45.50;;;17.13;;
54845;SDS011;53889;50.084;8.646;2022-12-18T02:06:15;48.83;;;18.73;;
54845;SDS011;53889;50.084;8.646;2022-12-18T02:08:51;50.43;;;19.53;;
54845;SDS011;53889;50.084;8.646;2022-12-18T02:11:31;41.37;;;16.70;;
54845;SDS011;53889;50.084;8.646;2022-12-18T02:14:08;44.63;;;16.60;;
54845;SDS011;53889;50.084;8.646;2022-12-18T02:16:43;43.17;;;15.77;;
54845;SDS011;53889;50.084;8.646;2022-12-18T02:19:18;45.37;;;16.50;;
54845;SDS011;53889;50.084;8.646;2022-12-18T02:21:57;39.70;;;16.83;;
54845;SDS011;53889;50.084;8.646;2022-12-18T02:24:34;39.90;;;15.97;;
54845;SDS011;53889;50.084;8.646;2022-12-18T02:27:07;40.27;;;16.10;;
54845;SDS011;53889;50.084;8.646;2022-12-18T02:29:36;44.43;;;16.70;;
54845;SDS011;53889;50.084;8.646;2022-12-18T02:32:08;51.40;;;17.90;;
54845;SDS011;53889;50.084;8.646;2022-12-18T02:34:40;39.47;;;16.70;;
54845;SDS011;53889;50.084;8.646;2022-12-18T02:37:12;50.50;;;16.63;;
54845;SDS011;53889;50.084;8.646;2022-12-18T02:39:43;44.00;;;17.87;;
54845;SDS011;53889;50.084;8.646;2022-12-18T02:42:15;47.40;;;17.83;;
54845;SDS011;53889;50.084;8.646;2022-12-18T02:44:43;45.57;;;17.20;;
54845;SDS011;53889;50.084;8.646;2022-12-18T02:47:14;43.73;;;16.73;;
54845;SDS011;53889;50.084;8.646;2022-12-18T02:49:44;42.23;;;16.23;;
54845;SDS011;53889;50.084;8.646;2022-12-18T02:52:24;45.57;;;16.67;;
54845;SDS011;53889;50.084;8.646;2022-12-18T02:55:04;48.10;;;18.20;;
54845;SDS011;53889;50.084;8.646;2022-12-18T02:57:52;43.87;;;16.33;;
54845;SDS011;53889;50.084;8.646;2022-12-18T03:00:27;49.50;;;17.23;;
54845;SDS011;53889;50.084;8.646;2022-12-18T03:02:57;44.43;;;17.13;;
54845;SDS011;53889;50.084;8.646;2022-12-18T03:05:30;49.03;;;17.50;;
54845;SDS011;53889;50.084;8.646;2022-12-18T03:08:02;45.33;;;18.07;;
54845;SDS011;53889;50.084;8.646;2022-12-18T03:10:35;42.53;;;16.67;;
54845;SDS011;53889;50.084;8.646;2022-12-18T03:13:12;42.47;;;16.37;;
54845;SDS011;53889;50.084;8.646;2022-12-18T03:15:42;49.10;;;16.90;;
54845;SDS011;53889;50.084;8.646;2022-12-18T03:18:14;43.07;;;17.83;;
54845;SDS011;53889;50.084;8.646;2022-12-18T03:20:44;48.97;;;17.53;;
54845;SDS011;53889;50.084;8.646;2022-12-18T03:23:18;39.93;;;16.87;;
54845;SDS011;53889;50.084;8.646;2022-12-18T03:25:50;48.13;;;18.87;;
54845;SDS011;53889;50.084;8.646;2022-12-18T03:28:22;50.30;;;19.17;;
54845;SDS011;53889;50.084;8.646;2022-12-18T03:30:57;50.83;;;18.53;;
54845;SDS011;53889;50.084;8.646;2022-12-18T03:33:28;53.67;;;19.87;;
54845;SDS011;53889;50.084;8.646;2022-12-18T03:35:56;52.20;;;18.03;;
54845;SDS011;53889;50.084;8.646;2022-12-18T03:38:23;49.27;;;18.20;;
54845;SDS011;53889;50.084;8.646;2022-12-18T03:41:06;51.23;;;18.57;;
54845;SDS011;53889;50.084;8.646;2022-12-18T03:44:03;45.97;;;18.67;;
54845;SDS011;53889;50.084;8.646;2022-12-18T03:46:42;49.00;;;19.10;;
54845;SDS011;53889;50.084;8.646;2022-12-18T03:49:18;45.00;;;17.90;;
54845;SDS011;53889;50.084;8.646;2022-12-18T03:51:52;50.50;;;18.70;;
54845;SDS011;53889;50.084;8.646;2022-12-18T03:54:22;52.30;;;19.30;;
54845;SDS011;53889;50.084;8.646;2022-12-18T03:56:57;48.07;;;18.37;;
54845;SDS011;53889;50.084;8.646;2022-12-18T03:59:29;43.17;;;16.93;;
54845;SDS011;53889;50.084;8.646;2022-12-18T04:01:57;45.87;;;16.83;;
54845;SDS011;53889;50.084;8.646;2022-12-18T04:04:26;45.03;;;17.53;;
54845;SDS011;53889;50.084;8.646;2022-12-18T04:06:57;41.13;;;16.53;;
54845;SDS011;53889;50.084;8.646;2022-12-18T04:09:26;44.23;;;16.10;;
54845;SDS011;53889;50.084;8.646;2022-12-18T04:11:56;38.37;;;15.87;;
54845;SDS011;53889;50.084;8.646;2022-12-18T04:14:24;39.10;;;16.00;;
54845;SDS011;53889;50.084;8.646;2022-12-18T04:16:55;39.63;;;16.57;;
54845;SDS011;53889;50.084;8.646;2022-12-18T04:19:28;41.77;;;16.33;;
54845;SDS011;53889;50.084;8.646;2022-12-18T04:21:55;42.90;;;16.57;;
54845;SDS011;53889;50.084;8.646;2022-12-18T04:24:22;45.13;;;17.10;;
54845;SDS011;53889;50.084;8.646;2022-12-18T04:27:00;39.67;;;15.40;;
54845;SDS011;53889;50.084;8.646;2022-12-18T04:29:31;40.67;;;16.30;;
54845;SDS011;53889;50.084;8.646;2022-12-18T04:32:00;41.30;;;15.83;;
54845;SDS011;53889;50.084;8.646;2022-12-18T04:34:28;38.20;;;15.90;;
54845;SDS011;53889;50.084;8.646;2022-12-18T04:36:56;41.00;;;15.13;;
54845;SDS011;53889;50.084;8.646;2022-12-18T04:39:23;38.50;;;15.47;;
54845;SDS011;53889;50.084;8.646;2022-12-18T04:41:53;38.97;;;15.53;;
54845;SDS011;53889;50.084;8.646;2022-12-18T04:44:20;43.90;;;17.40;;
54845;SDS011;53889;50.084;8.646;2022-12-18T04:46:46;41.03;;;16.83;;
54845;SDS011;53889;50.084;8.646;2022-12-18T04:49:14;41.83;;;17.17;;
54845;SDS011;53889;50.084;8.646;2022-12-18T04:51:41;42.63;;;17.10;;
54845;SDS011;53889;50.084;8.646;2022-12-18T04:54:08;37.77;;;15.33;;
54845;SDS011;53889;50.084;8.646;2022-12-18T04:56:35;39.67;;;17.13;;
54845;SDS011;53889;50.084;8.646;2022-12-18T04:59:01;42.47;;;16.57;;
54845;SDS011;53889;50.084;8.646;2022-12-18T05:01:28;43.00;;;17.30;;
54845;SDS011;53889;50.084;8.646;2022-12-18T05:03:55;39.00;;;16.20;;
54845;SDS011;53889;50.084;8.646;2022-12-18T05:06:23;42.40;;;17.57;;
54845;SDS011;53889;50.084;8.646;2022-12-18T05:08:50;37.50;;;16.37;;
54845;SDS011;53889;50.084;8.646;2022-12-18T05:11:17;37.10;;;15.80;;
54845;SDS011;53889;50.084;8.646;2022-12-18T05:13:44;39.60;;;16.47;;
54845;SDS011;53889;50.084;8.646;2022-12-18T05:16:11;39.63;;;16.67;;
54845;SDS011;53889;50.084;8.646;2022-12-18T05:18:39;38.63;;;16.83;;
54845;SDS011;53889;50.084;8.646;2022-12-18T05:21:05;45.37;;;17.03;;
54845;SDS011;53889;50.084;8.646;2022-12-18T05:23:34;41.47;;;17.40;;
54845;SDS011;53889;50.084;8.646;2022-12-18T05:26:01;42.00;;;17.63;;
54845;SDS011;53889;50.084;8.646;2022-12-18T05:28:30;41.40;;;16.90;;
54845;SDS011;53889;50.084;8.646;2022-12-18T05:30:59;42.83;;;16.87;;
54845;SDS011;53889;50.084;8.646;2022-12-18T05:33:28;37.87;;;16.70;;
54845;SDS011;53889;50.084;8.646;2022-12-18T05:35:57;43.97;;;17.63;;
54845;SDS011;53889;50.084;8.646;2022-12-18T05:38:25;40.17;;;16.70;;
54845;SDS011;53889;50.084;8.646;2022-12-18T05:40:54;42.10;;;17.47;;
54845;SDS011;53889;50.084;8.646;2022-12-18T05:43:22;39.23;;;17.10;;
54845;SDS011;53889;50.084;8.646;2022-12-18T05:45:50;38.23;;;17.13;;
54845;SDS011;53889;50.084;8.646;2022-12-18T05:48:17;40.50;;;16.47;;
54845;SDS011;53889;50.084;8.646;2022-12-18T05:50:45;37.87;;;15.73;;
54845;SDS011;53889;50.084;8.646;2022-12-18T05:53:14;38.23;;;15.97;;
54845;SDS011;53889;50.084;8.646;2022-12-18T05:55:42;38.63;;;15.30;;
54845;SDS011;53889;50.084;8.646;2022-12-18T05:58:11;38.20;;;16.20;;
54845;SDS011;53889;50.084;8.646;2022-12-18T06:00:40;39.30;;;16.23;;
54845;SDS011;53889;50.084;8.646;2022-12-18T06:03:08;36.77;;;15.57;;
54845;SDS011;53889;50.084;8.646;2022-12-18T06:05:37;38.90;;;16.07;;
54845;SDS011;53889;50.084;8.646;2022-12-18T06:08:05;38.80;;;15.73;;
54845;SDS011;53889;50.084;8.646;2022-12-18T06:10:32;35.50;;;15.20;;
54845;SDS011;53889;50.084;8.646;2022-12-18T06:12:59;36.53;;;16.33;;
54845;SDS011;53889;50.084;8.646;2022-12-18T06:15:27;38.40;;;16.20;;
54845;SDS011;53889;50.084;8.646;2022-12-18T06:17:53;44.83;;;16.60;;
54845;SDS011;53889;50.084;8.646;2022-12-18T06:20:20;39.10;;;16.07;;
54845;SDS011;53889;50.084;8.646;2022-12-18T06:22:47;40.80;;;16.30;;
54845;SDS011;53889;50.084;8.646;2022-12-18T06:25:14;41.13;;;16.73;;
54845;SDS011;53889;50.084;8.646;2022-12-18T06:27:41;41.50;;;17.20;;
54845;SDS011;53889;50.084;8.646;2022-12-18T06:30:09;42.17;;;17.20;;
54845;SDS011;53889;50.084;8.646;2022-12-18T06:32:38;40.20;;;17.10;;
54845;SDS011;53889;50.084;8.646;2022-12-18T06:35:06;45.60;;;17.30;;
54845;SDS011;53889;50.084;8.646;2022-12-18T06:37:33;41.53;;;18.00;;
54845;SDS011;53889;50.084;8.646;2022-12-18T06:39:59;37.90;;;16.00;;
54845;SDS011;53889;50.084;8.646;2022-12-18T06:42:27;41.50;;;17.40;;
54845;SDS011;53889;50.084;8.646;2022-12-18T06:44:54;39.93;;;16.40;;
54845;SDS011;53889;50.084;8.646;2022-12-18T06:47:21;42.73;;;17.33;;
54845;SDS011;53889;50.084;8.646;2022-12-18T06:49:49;39.23;;;17.00;;
54845;SDS011;53889;50.084;8.646;2022-12-18T06:52:16;35.87;;;14.80;;
54845;SDS011;53889;50.084;8.646;2022-12-18T06:54:43;42.00;;;17.47;;
54845;SDS011;53889;50.084;8.646;2022-12-18T06:57:10;40.70;;;17.97;;
54845;SDS011;53889;50.084;8.646;2022-12-18T06:59:37;40.53;;;17.13;;
54845;SDS011;53889;50.084;8.646;2022-12-18T07:02:03;41.40;;;18.00;;
54845;SDS011;53889;50.084;8.646;2022-12-18T07:04:31;45.13;;;17.80;;
54845;SDS011;53889;50.084;8.646;2022-12-18T07:06:59;46.40;;;18.30;;
54845;SDS011;53889;50.084;8.646;2022-12-18T07:09:26;42.40;;;17.47;;
54845;SDS011;53889;50.084;8.646;2022-12-18T07:11:53;38.47;;;16.53;;
54845;SDS011;53889;50.084;8.646;2022-12-18T07:14:20;43.83;;;17.60;;
54845;SDS011;53889;50.084;8.646;2022-12-18T07:16:47;42.53;;;17.60;;
54845;SDS011;53889;50.084;8.646;2022-12-18T07:19:13;40.20;;;17.37;;
54845;SDS011;53889;50.084;8.646;2022-12-18T07:21:40;43.70;;;18.50;;
54845;SDS011;53889;50.084;8.646;2022-12-18T07:24:08;40.60;;;16.83;;
54845;SDS011;53889;50.084;8.646;2022-12-18T07:26:35;40.87;;;17.50;;
54845;SDS011;53889;50.084;8.646;2022-12-18T07:29:02;44.00;;;18.73;;
54845;SDS011;53889;50.084;8.646;2022-12-18T07:31:29;42.90;;;17.37;;
54845;SDS011;53889;50.084;8.646;2022-12-18T07:33:55;40.60;;;18.03;;
54845;SDS011;53889;50.084;8.646;2022-12-18T07:36:22;42.23;;;18.73;;
54845;SDS011;53889;50.084;8.646;2022-12-18T07:38:49;43.90;;;18.77;;
54845;SDS011;53889;50.084;8.646;2022-12-18T07:41:18;43.73;;;19.10;;
54845;SDS011;53889;50.084;8.646;2022-12-18T07:43:45;45.73;;;18.17;;
54845;SDS011;53889;50.084;8.646;2022-12-18T07:46:12;45.13;;;18.20;;
54845;SDS011;53889;50.084;8.646;2022-12-18T07:48:40;43.27;;;17.70;;
54845;SDS011;53889;50.084;8.646;2022-12-18T07:51:09;43.60;;;18.37;;
54845;SDS011;53889;50.084;8.646;2022-12-18T07:53:36;42.33;;;17.73;;
54845;SDS011;53889;50.084;8.646;2022-12-18T07:56:04;46.50;;;18.03;;
54845;SDS011;53889;50.084;8.646;2022-12-18T07:58:35;39.97;;;17.80;;
54845;SDS011;53889;50.084;8.646;2022-12-18T08:01:03;43.17;;;18.33;;
54845;SDS011;53889;50.084;8.646;2022-12-18T08:03:30;44.90;;;18.33;;
54845;SDS011;53889;50.084;8.646;2022-12-18T08:05:58;47.27;;;18.33;;
54845;SDS011;53889;50.084;8.646;2022-12-18T08:08:26;41.77;;;17.27;;
54845;SDS011;53889;50.084;8.646;2022-12-18T08:10:52;41.10;;;16.93;;
54845;SDS011;53889;50.084;8.646;2022-12-18T08:13:19;41.30;;;17.50;;
54845;SDS011;53889;50.084;8.646;2022-12-18T08:15:48;41.03;;;18.17;;
54845;SDS011;53889;50.084;8.646;2022-12-18T08:18:22;38.73;;;17.53;;
54845;SDS011;53889;50.084;8.646;2022-12-18T08:20:49;41.07;;;17.87;;
54845;SDS011;53889;50.084;8.646;2022-12-18T08:23:15;39.80;;;17.40;;
54845;SDS011;53889;50.084;8.646;2022-12-18T08:25:42;41.23;;;18.43;;
54845;SDS011;53889;50.084;8.646;2022-12-18T08:28:09;42.53;;;17.67;;
54845;SDS011;53889;50.084;8.646;2022-12-18T08:30:36;40.10;;;17.47;;
54845;SDS011;53889;50.084;8.646;2022-12-18T08:33:04;40.37;;;17.47;;
54845;SDS011;53889;50.084;8.646;2022-12-18T08:35:34;42.37;;;18.00;;
54845;SDS011;53889;50.084;8.646;2022-12-18T08:38:01;38.17;;;17.10;;
54845;SDS011;53889;50.084;8.646;2022-12-18T08:40:28;41.43;;;18.10;;
54845;SDS011;53889;50.084;8.646;2022-12-18T08:42:55;35.90;;;16.10;;
54845;SDS011;53889;50.084;8.646;2022-12-18T08:45:39;42.07;;;18.07;;
54845;SDS011;53889;50.084;8.646;2022-12-18T08:48:07;43.90;;;17.87;;
54845;SDS011;53889;50.084;8.646;2022-12-18T08:50:34;40.97;;;18.70;;
54845;SDS011;53889;50.084;8.646;2022-12-18T08:53:01;42.63;;;19.90;;
54845;SDS011;53889;50.084;8.646;2022-12-18T08:55:27;46.77;;;19.90;;
54845;SDS011;53889;50.084;8.646;2022-12-18T08:57:54;41.93;;;18.97;;
54845;SDS011;53889;50.084;8.646;2022-12-18T09:00:21;42.70;;;20.07;;
54845;SDS011;53889;50.084;8.646;2022-12-18T09:02:48;41.23;;;20.63;;
54845;SDS011;53889;50.084;8.646;2022-12-18T09:05:16;46.00;;;21.10;;
54845;SDS011;53889;50.084;8.646;2022-12-18T09:07:43;44.37;;;20.63;;
54845;SDS011;53889;50.084;8.646;2022-12-18T09:10:09;46.53;;;21.60;;
54845;SDS011;53889;50.084;8.646;2022-12-18T09:12:36;47.30;;;20.97;;
54845;SDS011;53889;50.084;8.646;2022-12-18T09:15:03;51.27;;;22.90;;
54845;SDS011;53889;50.084;8.646;2022-12-18T09:17:30;65.40;;;29.70;;
54845;SDS011;53889;50.084;8.646;2022-12-18T09:19:57;45.93;;;22.70;;
54845;SDS011;53889;50.084;8.646;2022-12-18T09:22:25;46.42;;;22.27;;
54845;SDS011;53889;50.084;8.646;2022-12-18T09:24:52;47.27;;;22.73;;
54845;SDS011;53889;50.084;8.646;2022-12-18T09:27:20;45.90;;;21.67;;
54845;SDS011;53889;50.084;8.646;2022-12-18T09:29:47;46.67;;;22.10;;
54845;SDS011;53889;50.084;8.646;2022-12-18T09:32:14;45.17;;;20.70;;
54845;SDS011;53889;50.084;8.646;2022-12-18T09:34:41;45.35;;;21.67;;
54845;SDS011;53889;50.084;8.646;2022-12-18T09:37:08;46.53;;;22.70;;
54845;SDS011;53889;50.084;8.646;2022-12-18T09:39:36;46.33;;;22.00;;
54845;SDS011;53889;50.084;8.646;2022-12-18T09:42:04;43.75;;;22.80;;
54845;SDS011;53889;50.084;8.646;2022-12-18T09:44:32;46.92;;;22.75;;
54845;SDS011;53889;50.084;8.646;2022-12-18T09:47:06;50.08;;;22.85;;
54845;SDS011;53889;50.084;8.646;2022-12-18T09:49:38;46.27;;;22.73;;
54845;SDS011;53889;50.084;8.646;2022-12-18T09:52:09;43.95;;;21.85;;
54845;SDS011;53889;50.084;8.646;2022-12-18T09:54:42;48.15;;;21.63;;
54845;SDS011;53889;50.084;8.646;2022-12-18T09:57:13;47.13;;;22.15;;
54845;SDS011;53889;50.084;8.646;2022-12-18T09:59:41;46.72;;;23.30;;
54845;SDS011;53889;50.084;8.646;2022-12-18T10:02:16;51.50;;;23.00;;
54845;SDS011;53889;50.084;8.646;2022-12-18T10:04:48;49.33;;;23.67;;
54845;SDS011;53889;50.084;8.646;2022-12-18T10:07:29;48.00;;;22.95;;
54845;SDS011;53889;50.084;8.646;2022-12-18T10:10:06;51.60;;;23.75;;
54845;SDS011;53889;50.084;8.646;2022-12-18T10:12:42;60.22;;;26.45;;
54845;SDS011;53889;50.084;8.646;2022-12-18T10:15:19;56.83;;;26.98;;
54845;SDS011;53889;50.084;8.646;2022-12-18T10:17:51;51.60;;;23.98;;
54845;SDS011;53889;50.084;8.646;2022-12-18T10:20:27;66.50;;;29.63;;
54845;SDS011;53889;50.084;8.646;2022-12-18T10:22:59;51.20;;;23.48;;
54845;SDS011;53889;50.084;8.646;2022-12-18T10:25:34;59.65;;;26.25;;
54845;SDS011;53889;50.084;8.646;2022-12-18T10:28:10;64.15;;;29.25;;
54845;SDS011;53889;50.084;8.646;2022-12-18T10:30:39;56.20;;;25.60;;
54845;SDS011;53889;50.084;8.646;2022-12-18T10:33:08;58.38;;;25.15;;
54845;SDS011;53889;50.084;8.646;2022-12-18T10:35:40;59.03;;;24.95;;
54845;SDS011;53889;50.084;8.646;2022-12-18T10:38:20;56.85;;;24.30;;
54845;SDS011;53889;50.084;8.646;2022-12-18T10:40:50;53.55;;;23.67;;
54845;SDS011;53889;50.084;8.646;2022-12-18T10:43:20;57.17;;;24.42;;
54845;SDS011;53889;50.084;8.646;2022-12-18T10:45:58;54.53;;;24.85;;
54845;SDS011;53889;50.084;8.646;2022-12-18T10:48:40;54.95;;;23.80;;
54845;SDS011;53889;50.084;8.646;2022-12-18T10:51:20;54.25;;;24.05;;
54845;SDS011;53889;50.084;8.646;2022-12-18T10:53:51;56.00;;;25.65;;
54845;SDS011;53889;50.084;8.646;2022-12-18T10:56:22;53.75;;;23.75;;
54845;SDS011;53889;50.084;8.646;2022-12-18T10:58:55;51.53;;;23.58;;
54845;SDS011;53889;50.084;8.646;2022-12-18T11:01:23;56.85;;;23.70;;
54845;SDS011;53889;50.084;8.646;2022-12-18T11:03:58;50.88;;;22.40;;
54845;SDS011;53889;50.084;8.646;2022-12-18T11:06:27;54.83;;;23.75;;
54845;SDS011;53889;50.084;8.646;2022-12-18T11:08:57;51.45;;;22.33;;
54845;SDS011;53889;50.084;8.646;2022-12-18T11:11:27;50.78;;;23.65;;
54845;SDS011;53889;50.084;8.646;2022-12-18T11:13:58;50.60;;;22.80;;
54845;SDS011;53889;50.084;8.646;2022-12-18T11:16:29;55.13;;;24.40;;
54845;SDS011;53889;50.084;8.646;2022-12-18T11:19:10;57.33;;;23.45;;
54845;SDS011;53889;50.084;8.646;2022-12-18T11:21:46;53.03;;;23.42;;
54845;SDS011;53889;50.084;8.646;2022-12-18T11:24:19;51.90;;;21.95;;
54845;SDS011;53889;50.084;8.646;2022-12-18T11:26:49;53.88;;;22.92;;
54845;SDS011;53889;50.084;8.646;2022-12-18T11:29:17;54.47;;;23.38;;
54845;SDS011;53889;50.084;8.646;2022-12-18T11:31:48;52.78;;;23.55;;
54845;SDS011;53889;50.084;8.646;2022-12-18T11:34:16;53.65;;;23.55;;
54845;SDS011;53889;50.084;8.646;2022-12-18T11:36:48;51.60;;;22.33;;
54845;SDS011;53889;50.084;8.646;2022-12-18T11:39:17;55.80;;;24.33;;
54845;SDS011;53889;50.084;8.646;2022-12-18T11:41:50;52.95;;;23.30;;
54845;SDS011;53889;50.084;8.646;2022-12-18T11:44:36;55.72;;;23.38;;
54845;SDS011;53889;50.084;8.646;2022-12-18T11:47:09;49.47;;;21.77;;
54845;SDS011;53889;50.084;8.646;2022-12-18T11:49:44;53.95;;;24.05;;
54845;SDS011;53889;50.084;8.646;2022-12-18T11:52:15;52.08;;;23.50;;
54845;SDS011;53889;50.084;8.646;2022-12-18T11:54:45;51.58;;;22.95;;
54845;SDS011;53889;50.084;8.646;2022-12-18T11:57:15;59.72;;;24.90;;
54845;SDS011;53889;50.084;8.646;2022-12-18T11:59:54;60.80;;;24.90;;
54845;SDS011;53889;50.084;8.646;2022-12-18T12:02:40;53.65;;;22.20;;
54845;SDS011;53889;50.084;8.646;2022-12-18T12:05:25;54.05;;;22.42;;
54845;SDS011;53889;50.084;8.646;2022-12-18T12:08:00;52.20;;;22.17;;
54845;SDS011;53889;50.084;8.646;2022-12-18T12:10:36;51.08;;;21.95;;
54845;SDS011;53889;50.084;8.646;2022-12-18T12:13:15;53.47;;;22.52;;
54845;SDS011;53889;50.084;8.646;2022-12-18T12:15:52;52.00;;;21.83;;
54845;SDS011;53889;50.084;8.646;2022-12-18T12:18:31;51.45;;;23.50;;
54845;SDS011;53889;50.084;8.646;2022-12-18T12:21:10;54.92;;;22.05;;
54845;SDS011;53889;50.084;8.646;2022-12-18T12:23:41;55.70;;;23.25;;
54845;SDS011;53889;50.084;8.646;2022-12-18T12:26:14;59.15;;;22.52;;
54845;SDS011;53889;50.084;8.646;2022-12-18T12:28:55;51.42;;;21.85;;
54845;SDS011;53889;50.084;8.646;2022-12-18T12:31:33;49.00;;;21.80;;
54845;SDS011;53889;50.084;8.646;2022-12-18T12:34:15;59.58;;;22.75;;
54845;SDS011;53889;50.084;8.646;2022-12-18T12:36:50;59.50;;;23.63;;
54845;SDS011;53889;50.084;8.646;2022-12-18T12:39:28;53.00;;;21.80;;
54845;SDS011;53889;50.084;8.646;2022-12-18T12:42:00;55.08;;;21.73;;
54845;SDS011;53889;50.084;8.646;2022-12-18T12:44:50;54.63;;;22.30;;
54845;SDS011;53889;50.084;8.646;2022-12-18T12:47:20;58.17;;;22.85;;
54845;SDS011;53889;50.084;8.646;2022-12-18T12:49:51;53.65;;;22.90;;
54845;SDS011;53889;50.084;8.646;2022-12-18T12:52:21;53.33;;;23.20;;
54845;SDS011;53889;50.084;8.646;2022-12-18T12:54:54;58.25;;;23.75;;
54845;SDS011;53889;50.084;8.646;2022-12-18T12:57:23;52.70;;;22.45;;
54845;SDS011;53889;50.084;8.646;2022-12-18T12:59:59;55.35;;;23.95;;
54845;SDS011;53889;50.084;8.646;2022-12-18T13:02:30;52.97;;;22.02;;
54845;SDS011;53889;50.084;8.646;2022-12-18T13:05:03;52.95;;;22.30;;
54845;SDS011;53889;50.084;8.646;2022-12-18T13:07:37;59.63;;;24.08;;
54845;SDS011;53889;50.084;8.646;2022-12-18T13:10:11;53.72;;;22.02;;
54845;SDS011;53889;50.084;8.646;2022-12-18T13:12:51;55.10;;;23.05;;
54845;SDS011;53889;50.084;8.646;2022-12-18T13:15:22;57.85;;;23.60;;
54845;SDS011;53889;50.084;8.646;2022-12-18T13:18:12;51.78;;;22.95;;
54845;SDS011;53889;50.084;8.646;2022-12-18T13:20:41;59.28;;;23.02;;
54845;SDS011;53889;50.084;8.646;2022-12-18T13:23:19;59.75;;;24.15;;
54845;SDS011;53889;50.084;8.646;2022-12-18T13:25:52;53.58;;;21.65;;
54845;SDS011;53889;50.084;8.646;2022-12-18T13:28:20;55.20;;;22.05;;
54845;SDS011;53889;50.084;8.646;2022-12-18T13:30:51;57.78;;;23.30;;
54845;SDS011;53889;50.084;8.646;2022-12-18T13:36:12;57.40;;;23.23;;
54845;SDS011;53889;50.084;8.646;2022-12-18T13:41:49;57.47;;;21.42;;
54845;SDS011;53889;50.084;8.646;2022-12-18T13:44:22;52.55;;;21.60;;
54845;SDS011;53889;50.084;8.646;2022-12-18T13:46:58;53.35;;;22.27;;
54845;SDS011;53889;50.084;8.646;2022-12-18T13:49:27;51.65;;;20.70;;
54845;SDS011;53889;50.084;8.646;2022-12-18T13:52:02;54.95;;;22.77;;
54845;SDS011;53889;50.084;8.646;2022-12-18T13:54:40;56.83;;;21.40;;
54845;SDS011;53889;50.084;8.646;2022-12-18T13:57:23;53.15;;;21.92;;
54845;SDS011;53889;50.084;8.646;2022-12-18T13:59:52;53.33;;;21.40;;
54845;SDS011;53889;50.084;8.646;2022-12-18T14:02:22;53.08;;;21.08;;
54845;SDS011;53889;50.084;8.646;2022-12-18T14:04:50;51.58;;;21.10;;
54845;SDS011;53889;50.084;8.646;2022-12-18T14:07:18;50.60;;;21.30;;
54845;SDS011;53889;50.084;8.646;2022-12-18T14:09:49;53.28;;;22.45;;
54845;SDS011;53889;50.084;8.646;2022-12-18T14:12:18;54.70;;;21.85;;
54845;SDS011;53889;50.084;8.646;2022-12-18T14:15:05;54.97;;;22.98;;
54845;SDS011;53889;50.084;8.646;2022-12-18T14:20:12;53.97;;;20.70;;
54845;SDS011;53889;50.084;8.646;2022-12-18T14:22:42;55.65;;;22.13;;
54845;SDS011;53889;50.084;8.646;2022-12-18T14:25:15;52.72;;;20.80;;
54845;SDS011;53889;50.084;8.646;2022-12-18T14:27:45;49.45;;;20.48;;
54845;SDS011;53889;50.084;8.646;2022-12-18T14:30:26;52.35;;;21.95;;
54845;SDS011;53889;50.084;8.646;2022-12-18T14:33:02;54.00;;;21.77;;
54845;SDS011;53889;50.084;8.646;2022-12-18T14:35:30;56.03;;;22.15;;
54845;SDS011;53889;50.084;8.646;2022-12-18T14:38:09;48.47;;;20.20;;
54845;SDS011;53889;50.084;8.646;2022-12-18T14:40:37;51.00;;;19.42;;
54845;SDS011;53889;50.084;8.646;2022-12-18T14:43:03;50.92;;;21.98;;
54845;SDS011;53889;50.084;8.646;2022-12-18T14:45:34;49.50;;;21.13;;
54845;SDS011;53889;50.084;8.646;2022-12-18T14:48:09;50.10;;;21.65;;